createdAt,value
2018-08-12T00:03:20.226Z,21.90
2018-08-12T00:05:56.245Z,21.90
2018-08-12T00:08:45.288Z,21.80
2018-08-12T00:11:22.364Z,21.80
2018-08-12T00:13:58.627Z,21.70
2018-08-12T00:16:34.367Z,21.70
2018-08-12T00:19:08.891Z,21.60
2018-08-12T00:21:43.299Z,21.60
2018-08-12T00:24:18.042Z,21.50
2018-08-12T00:26:52.497Z,21.50
2018-08-12T00:29:27.073Z,21.30
2018-08-12T00:32:01.442Z,21.30
2018-08-12T00:34:37.477Z,21.40
2018-08-12T00:37:11.828Z,21.30
2018-08-12T00:39:48.127Z,21.30
2018-08-12T00:45:12.564Z,21.30
2018-08-12T00:47:48.626Z,21.10
2018-08-12T00:50:23.037Z,21.10
2018-08-12T00:52:57.641Z,21.10
2018-08-12T00:55:32.142Z,21.10
2018-08-12T00:58:06.904Z,21.00
2018-08-12T01:00:51.076Z,21.00
2018-08-12T01:03:25.577Z,20.90
2018-08-12T01:06:01.500Z,20.90
2018-08-12T01:08:37.279Z,20.80
2018-08-12T01:11:11.711Z,20.70
2018-08-12T01:13:47.776Z,20.70
2018-08-12T01:16:23.776Z,20.70
2018-08-12T01:18:58.374Z,20.70
2018-08-12T01:21:34.451Z,20.70
2018-08-12T01:24:12.866Z,20.70
2018-08-12T01:26:47.573Z,20.50
2018-08-12T01:29:22.400Z,20.50
2018-08-12T01:31:57.688Z,20.40
2018-08-12T01:34:34.139Z,20.50
2018-08-12T01:37:08.798Z,20.50
2018-08-12T01:39:50.964Z,20.50
2018-08-12T01:45:14.087Z,20.40
2018-08-12T01:47:50.131Z,20.30
2018-08-12T01:50:25.104Z,20.30
2018-08-12T01:52:59.919Z,20.30
2018-08-12T01:55:34.391Z,20.30
2018-08-12T01:58:10.774Z,20.30
2018-08-12T02:00:45.342Z,20.30
2018-08-12T02:03:20.149Z,20.20
2018-08-12T02:05:56.531Z,20.20
2018-08-12T02:08:32.120Z,20.10
2018-08-12T02:11:08.430Z,20.10
2018-08-12T02:13:44.800Z,20.10
2018-08-12T02:16:21.067Z,20.10
2018-08-12T02:18:56.974Z,20.00
2018-08-12T02:21:34.980Z,19.90
2018-08-12T02:24:10.072Z,19.80
2018-08-12T02:26:44.672Z,19.80
2018-08-12T02:29:19.547Z,19.80
2018-08-12T02:31:54.002Z,19.70
2018-08-12T02:34:30.855Z,19.80
2018-08-12T02:37:06.760Z,19.80
2018-08-12T02:39:42.490Z,19.80
2018-08-12T02:42:17.786Z,19.70
2018-08-12T02:44:53.678Z,19.60
2018-08-12T02:47:39.000Z,19.60
2018-08-12T02:50:13.445Z,19.60
2018-08-12T02:52:48.133Z,19.60
2018-08-12T02:55:34.181Z,19.50
2018-08-12T02:58:09.557Z,19.50
2018-08-12T03:00:50.477Z,19.40
2018-08-12T03:03:26.263Z,19.50
2018-08-12T03:06:00.839Z,19.40
2018-08-12T03:08:37.439Z,19.40
2018-08-12T03:11:13.831Z,19.40
2018-08-12T03:13:48.316Z,19.40
2018-08-12T03:16:24.007Z,19.40
2018-08-12T03:19:00.016Z,19.30
2018-08-12T03:21:36.044Z,19.30
2018-08-12T03:24:10.607Z,19.30
2018-08-12T03:26:45.213Z,19.30
2018-08-12T03:29:20.109Z,19.30
2018-08-12T03:31:54.926Z,19.20
2018-08-12T03:34:31.210Z,19.20
2018-08-12T03:37:07.429Z,19.20
2018-08-12T03:39:43.736Z,19.10
2018-08-12T03:42:18.099Z,19.10
2018-08-12T03:44:54.380Z,19.10
2018-08-12T03:47:39.358Z,19.10
2018-08-12T03:50:13.663Z,19.10
2018-08-12T03:52:49.273Z,19.10
2018-08-12T03:55:23.997Z,19.10
2018-08-12T03:57:58.324Z,19.00
2018-08-12T04:00:34.091Z,18.90
2018-08-12T04:03:08.578Z,19.00
2018-08-12T04:05:43.412Z,19.00
2018-08-12T04:08:19.178Z,19.00
2018-08-12T04:11:06.088Z,18.90
2018-08-12T04:20:40.537Z,18.80
2018-08-12T04:23:16.238Z,17.90
2018-08-12T04:25:50.555Z,18.20
2018-08-12T04:28:25.089Z,18.40
2018-08-12T04:30:59.719Z,18.50
2018-08-12T04:33:35.971Z,18.60
2018-08-12T04:36:10.383Z,18.70
2018-08-12T04:38:45.848Z,18.70
2018-08-12T04:41:20.371Z,18.70
2018-08-12T04:43:56.638Z,18.70
2018-08-12T04:46:31.123Z,18.70
2018-08-12T04:49:08.264Z,18.70
2018-08-12T04:51:42.904Z,18.70
2018-08-12T04:54:17.263Z,18.80
2018-08-12T04:56:54.848Z,18.70
2018-08-12T04:59:30.899Z,18.80
2018-08-12T05:02:05.627Z,18.90
2018-08-12T05:04:40.066Z,18.90
2018-08-12T05:07:15.948Z,19.00
2018-08-12T05:09:50.398Z,19.00
2018-08-12T05:12:26.051Z,19.10
2018-08-12T05:15:00.570Z,19.20
2018-08-12T05:17:36.775Z,19.20
2018-08-12T05:20:11.173Z,19.20
2018-08-12T05:22:47.035Z,19.30
2018-08-12T05:25:21.455Z,19.40
2018-08-12T05:27:56.292Z,19.40
2018-08-12T05:37:31.174Z,19.60
2018-08-12T05:40:07.462Z,18.90
2018-08-12T05:43:01.749Z,19.20
2018-08-12T05:48:13.443Z,19.50
2018-08-12T05:50:47.847Z,20.00
2018-08-12T05:53:22.247Z,20.10
2018-08-12T05:55:58.142Z,20.20
2018-08-12T05:58:33.762Z,20.30
2018-08-12T06:01:09.342Z,20.40
2018-08-12T06:03:43.940Z,20.40
2018-08-12T06:06:18.435Z,20.50
2018-08-12T06:08:54.271Z,20.70
2018-08-12T06:11:30.062Z,20.90
2018-08-12T06:14:05.171Z,21.00
2018-08-12T06:16:40.919Z,21.10
2018-08-12T06:19:16.531Z,21.30
2018-08-12T06:21:52.268Z,21.40
2018-08-12T06:24:26.782Z,21.50
2018-08-12T06:27:01.216Z,21.40
2018-08-12T06:29:35.693Z,21.60
2018-08-12T07:16:22.675Z,21.70
2018-08-12T07:18:59.460Z,24.00
2018-08-12T20:26:03.379Z,24.20
2018-08-12T20:28:38.473Z,27.60
2018-08-12T20:31:20.569Z,27.40
2018-08-12T20:33:56.759Z,27.40
2018-08-12T20:36:32.808Z,27.30
2018-08-12T20:39:11.833Z,27.30
2018-08-12T20:41:46.379Z,27.20
2018-08-12T20:44:22.401Z,27.10
2018-08-12T20:46:56.875Z,27.10
2018-08-12T20:49:32.592Z,27.10
2018-08-12T20:52:07.325Z,27.00
2018-08-12T20:54:41.857Z,27.00
2018-08-12T20:57:18.102Z,26.90
2018-08-12T20:59:55.733Z,26.80
2018-08-12T21:02:30.024Z,26.80
2018-08-12T21:05:04.611Z,26.80
2018-08-12T21:07:42.220Z,26.70
2018-08-12T21:10:23.828Z,26.60
2018-08-12T21:12:58.185Z,26.60
2018-08-12T21:15:32.591Z,26.40
2018-08-12T21:18:13.415Z,26.40
2018-08-12T21:20:48.043Z,26.40
2018-08-12T21:23:23.951Z,26.40
2018-08-12T21:25:58.601Z,26.40
2018-08-12T21:28:33.369Z,26.40
2018-08-12T21:31:09.219Z,26.30
2018-08-12T21:36:31.024Z,26.20
2018-08-12T21:39:10.160Z,26.10
2018-08-12T21:41:44.500Z,26.10
2018-08-12T21:44:23.349Z,26.10
2018-08-12T21:46:57.861Z,26.10
2018-08-12T21:49:33.630Z,26.00
2018-08-12T21:52:08.174Z,26.00
2018-08-12T21:54:43.818Z,25.90
2018-08-12T21:57:19.442Z,25.90
2018-08-12T21:59:53.991Z,25.90
2018-08-12T22:02:28.347Z,25.90
2018-08-12T22:05:02.940Z,25.80
2018-08-12T22:07:49.665Z,25.80
2018-08-12T22:10:24.277Z,25.70
2018-08-12T22:12:58.752Z,25.70
2018-08-12T22:15:33.211Z,25.70
2018-08-12T22:18:10.821Z,25.60
2018-08-12T22:20:45.286Z,25.60
2018-08-12T22:23:21.462Z,25.60
2018-08-12T22:25:57.332Z,25.50
2018-08-12T22:28:31.796Z,25.50
2018-08-12T22:31:07.408Z,25.50
2018-08-12T22:33:51.084Z,25.40
2018-08-12T22:36:25.466Z,25.40
2018-08-12T22:39:00.971Z,25.30
2018-08-12T22:41:35.456Z,25.30
2018-08-12T22:44:11.437Z,25.30
2018-08-12T22:46:48.372Z,25.30
2018-08-12T22:49:24.226Z,25.20
2018-08-12T22:51:58.648Z,25.30
2018-08-12T22:54:33.128Z,25.30
2018-08-12T22:57:08.514Z,25.20
2018-08-12T22:59:42.972Z,25.20
2018-08-12T23:02:17.320Z,25.20
2018-08-12T23:04:53.333Z,25.10
2018-08-12T23:07:29.175Z,25.10
2018-08-12T23:10:04.436Z,25.00
2018-08-12T23:12:40.589Z,25.10
2018-08-12T23:15:27.568Z,25.10
2018-08-12T23:18:05.100Z,25.00
2018-08-12T23:20:40.036Z,25.00
2018-08-12T23:23:15.875Z,25.00
2018-08-12T23:25:50.471Z,25.10
2018-08-12T23:28:27.788Z,25.10
2018-08-12T23:31:04.023Z,25.00
2018-08-12T23:36:20.483Z,25.00
2018-08-12T23:38:56.736Z,24.90
2018-08-12T23:41:31.060Z,24.90
2018-08-12T23:44:07.508Z,24.90
2018-08-12T23:46:44.719Z,24.90
2018-08-12T23:49:20.445Z,24.80
2018-08-12T23:51:54.778Z,24.80
2018-08-12T23:54:29.151Z,24.80
2018-08-12T23:57:05.081Z,24.80
2018-08-12T23:59:39.502Z,24.80
